Time;durP1;ratioP1;P1;durP2;ratioP2;P2;SDS_P1;SDS_P2;PMS_P1;PMS_P2;Temp;Humidity;BMP_temperature;BMP_pressure;BME280_temperature;BME280_humidity;BME280_pressure;Samples;Min_cycle;Max_cycle;Signal;HPM_P1;HPM_P2
2022/08/04 00:00:59;;;;;;;2.70;1.83;;;;;;;20.09;87.50;96192.03;5073889;28;20208;-69
2022/08/04 00:03:33;;;;;;;3.22;1.90;;;;;;;20.23;86.51;96186.94;5075435;28;20596;-70
2022/08/04 00:06:04;;;;;;;2.70;1.80;;;;;;;20.21;86.18;96180.22;5076344;28;20663;-69
2022/08/04 00:08:39;;;;;;;9.68;2.03;;;;;;;20.20;86.20;96181.28;5075993;28;20204;-69
2022/08/04 00:11:08;;;;;;;1.98;1.50;;;;;;;20.17;86.68;96187.09;5076170;28;20203;-69
2022/08/04 00:13:38;;;;;;;2.15;1.60;;;;;;;19.92;87.99;96175.88;5075298;28;20224;-68
2022/08/04 00:16:07;;;;;;;3.22;1.60;;;;;;;20.06;87.33;96177.25;5076020;28;20236;-69
2022/08/04 00:18:41;;;;;;;2.78;2.00;;;;;;;19.85;88.71;96183.19;5076125;28;20602;-69
2022/08/04 00:21:12;;;;;;;10.65;1.90;;;;;;;19.87;88.89;96182.94;5076234;28;20208;-69
2022/08/04 00:23:43;;;;;;;8.10;2.00;;;;;;;19.88;88.89;96182.72;5075300;28;20239;-67
2022/08/04 00:26:09;;;;;;;4.03;1.98;;;;;;;19.72;89.63;96175.41;5076023;28;20218;-68
2022/08/04 00:28:37;;;;;;;4.80;2.05;;;;;;;19.72;89.81;96167.38;5075882;28;20214;-69
2022/08/04 00:31:04;;;;;;;2.28;1.85;;;;;;;19.84;89.07;96173.53;5076474;28;20200;-68
2022/08/04 00:33:32;;;;;;;5.18;1.75;;;;;;;19.73;89.51;96174.38;5079052;28;20227;-69
2022/08/04 00:36:00;;;;;;;4.18;1.80;;;;;;;19.72;89.77;96167.38;5080109;28;20201;-69
2022/08/04 00:38:29;;;;;;;6.15;2.08;;;;;;;19.88;88.97;96168.53;5079341;28;20699;-70
2022/08/04 00:41:04;;;;;;;2.83;1.75;;;;;;;19.87;88.91;96170.41;5078778;28;20200;-70
2022/08/04 00:43:33;;;;;;;8.18;2.20;;;;;;;19.72;88.80;96169.25;5079537;28;20223;-70
2022/08/04 00:46:35;;;;;;;7.38;1.80;;;;;;;19.78;88.16;96177.16;5080037;28;20204;-70
2022/08/04 00:49:46;;;;;;;4.45;1.80;;;;;;;19.66;88.92;96176.34;5078770;28;20195;-69
2022/08/04 00:52:28;;;;;;;2.78;1.75;;;;;;;19.70;89.31;96172.19;5062952;28;20715;-69
2022/08/04 00:55:10;;;;;;;4.03;1.70;;;;;;;19.80;88.83;96176.91;5079131;28;20204;-67
2022/08/04 00:57:59;;;;;;;5.50;2.00;;;;;;;19.74;89.31;96178.69;5078428;28;20226;-68
2022/08/04 01:00:27;;;;;;;2.60;1.95;;;;;;;19.70;89.55;96184.72;5076767;28;20593;-69
2022/08/04 01:03:12;;;;;;;2.65;1.98;;;;;;;19.55;90.60;96181.69;5074875;28;20216;-70
2022/08/04 01:05:50;;;;;;;2.22;1.73;;;;;;;19.52;90.98;96176.03;5079202;28;20203;-69
2022/08/04 01:08:39;;;;;;;4.20;2.42;;;;;;;19.50;90.81;96181.59;5079146;28;20208;-69
2022/08/04 01:11:19;;;;;;;3.20;1.70;;;;;;;19.57;90.50;96175.06;5078964;28;20204;-69
2022/08/04 01:13:59;;;;;;;3.67;1.80;;;;;;;19.50;89.39;96181.59;5078080;28;20708;-70
2022/08/04 01:16:27;;;;;;;2.78;1.70;;;;;;;19.33;89.75;96177.97;5079174;28;20226;-70
2022/08/04 01:18:59;;;;;;;3.67;1.95;;;;;;;19.43;89.75;96180.09;5078580;28;20235;-69
2022/08/04 01:21:58;;;;;;;3.88;2.10;;;;;;;19.24;92.69;96189.25;5078736;28;20208;-69
2022/08/04 01:24:34;;;;;;;5.35;2.33;;;;;;;19.30;92.36;96183.00;5059386;28;20199;-70
2022/08/04 01:27:09;;;;;;;6.40;2.00;;;;;;;19.21;90.91;96184.38;5078192;28;20857;-69
2022/08/04 01:29:41;;;;;;;3.25;1.90;;;;;;;19.26;89.37;96187.19;5078320;28;20203;-68
2022/08/04 01:32:16;;;;;;;3.78;1.77;;;;;;;19.25;90.38;96188.22;5078189;28;20640;-69
2022/08/04 01:34:51;;;;;;;6.57;2.20;;;;;;;19.25;91.52;96191.69;5078634;28;20207;-69
2022/08/04 01:37:28;;;;;;;3.17;1.90;;;;;;;19.18;91.56;96184.84;5078338;28;20223;-68
2022/08/04 01:40:03;;;;;;;3.20;2.10;;;;;;;19.22;91.96;96192.16;5078724;28;20254;-68
2022/08/04 01:42:33;;;;;;;4.25;2.15;;;;;;;19.23;91.08;96187.63;5077506;28;20310;-68
2022/08/04 01:45:04;;;;;;;5.82;1.95;;;;;;;19.26;89.83;96189.84;5077780;28;20306;-68
2022/08/04 01:47:30;;;;;;;2.78;1.70;;;;;;;19.10;90.09;96187.84;5078735;28;20203;-69
2022/08/04 01:50:04;;;;;;;5.38;1.77;;;;;;;19.09;89.99;96188.88;5078002;28;20195;-68
2022/08/04 01:52:32;;;;;;;2.97;1.88;;;;;;;18.95;91.90;96192.78;5077203;28;20220;-68
2022/08/04 01:55:01;;;;;;;6.05;2.05;;;;;;;18.76;94.37;96191.25;5078484;28;20204;-69
2022/08/04 01:57:28;;;;;;;4.95;2.20;;;;;;;18.88;93.56;96193.94;5078021;28;20216;-70
2022/08/04 01:59:58;;;;;;;3.28;1.83;;;;;;;18.89;92.11;96196.38;5077435;28;20207;-68
2022/08/04 02:02:26;;;;;;;5.63;2.10;;;;;;;18.96;92.09;96192.56;5075098;28;20228;-69
2022/08/04 02:04:53;;;;;;;2.83;2.13;;;;;;;18.61;94.93;96187.34;5078103;28;20208;-70
2022/08/04 02:07:36;;;;;;;2.47;1.90;;;;;;;18.85;93.96;96197.06;5077534;28;20212;-69
2022/08/04 02:10:06;;;;;;;4.45;2.17;;;;;;;18.79;93.16;96185.44;5077722;28;20926;-69
2022/08/04 02:12:48;;;;;;;3.75;2.03;;;;;;;18.79;91.86;96188.09;5073850;28;20231;-70
2022/08/04 02:15:24;;;;;;;4.03;1.92;;;;;;;18.89;91.84;96185.69;5077579;28;20208;-69
2022/08/04 02:21:19;;;;;;;4.53;2.25;;;;;;;18.70;94.15;96185.97;5073525;28;20223;-69
2022/08/04 02:23:53;;;;;;;3.33;2.30;;;;;;;18.69;93.92;96182.50;5076878;28;20250;-70
2022/08/04 02:26:21;;;;;;;2.67;2.10;;;;;;;18.65;94.22;96178.66;5077945;28;20294;-69
2022/08/04 02:28:56;;;;;;;5.78;2.20;;;;;;;18.75;92.12;96184.28;5077315;28;20196;-69
2022/08/04 02:31:29;;;;;;;3.45;2.33;;;;;;;18.68;91.72;96177.41;5077288;28;20226;-68
2022/08/04 02:34:01;;;;;;;2.90;2.05;;;;;;;18.62;93.31;96178.31;5076517;28;20220;-69
2022/08/04 02:36:31;;;;;;;8.48;2.60;;;;;;;18.57;95.50;96176.31;5077630;28;20207;-68
2022/08/04 02:39:01;;;;;;;8.00;2.63;;;;;;;18.59;96.09;96174.22;5076944;28;20223;-69
2022/08/04 02:41:29;;;;;;;2.97;2.03;;;;;;;18.59;93.74;96174.22;5077455;28;21106;-69
2022/08/04 02:43:58;;;;;;;5.55;2.00;;;;;;;18.65;94.01;96172.53;5076769;28;20215;-69
2022/08/04 02:46:25;;;;;;;4.85;2.50;;;;;;;18.61;95.00;96171.31;5076990;28;20204;-69
2022/08/04 02:48:53;;;;;;;3.70;2.35;;;;;;;18.68;95.45;96167.53;5076838;28;20257;-70
2022/08/04 02:51:22;;;;;;;5.80;2.20;;;;;;;18.71;94.91;96172.44;5077260;28;20203;-70
2022/08/04 02:53:54;;;;;;;5.07;2.50;;;;;;;18.78;94.55;96172.31;5075452;28;20224;-67
2022/08/04 02:56:22;;;;;;;7.07;3.17;;;;;;;18.62;97.01;96167.63;5076734;28;20392;-68
2022/08/04 02:58:52;;;;;;;4.13;2.45;;;;;;;18.73;96.83;96164.97;5076679;28;20228;-68
2022/08/04 03:01:21;;;;;;;5.10;2.50;;;;;;;18.58;98.22;96172.63;5074039;28;20211;-69
2022/08/04 03:03:58;;;;;;;3.50;2.40;;;;;;;18.67;97.05;96163.25;5075900;28;20235;-68
2022/08/04 03:06:55;;;;;;;3.83;2.28;;;;;;;18.49;96.00;96168.63;5077753;28;20215;-69
2022/08/04 03:09:40;;;;;;;6.28;2.20;;;;;;;18.50;94.85;96158.78;5076651;28;20702;-70
2022/08/04 03:12:52;;;;;;;3.78;2.30;;;;;;;18.36;95.34;96158.13;5076377;28;20199;-70
2022/08/04 03:15:58;;;;;;;2.63;2.03;;;;;;;18.31;96.07;96153.72;5028857;28;20215;-70
2022/08/04 03:18:59;;;;;;;4.72;2.40;;;;;;;18.40;95.96;96153.16;5045527;28;20593;-69
2022/08/04 03:22:16;;;;;;;4.22;2.40;;;;;;;18.14;99.22;96147.34;5076677;28;20207;-68
2022/08/04 03:25:34;;;;;;;4.20;2.40;;;;;;;18.22;100.00;96149.75;5076056;28;20210;-69
2022/08/04 03:28:38;;;;;;;4.40;2.40;;;;;;;18.28;95.58;96148.81;5050018;28;20203;-69
2022/08/04 03:31:29;;;;;;;3.63;2.45;;;;;;;18.06;98.75;96145.00;5076527;28;20403;-69
2022/08/04 03:34:15;;;;;;;5.82;2.60;;;;;;;18.13;100.00;96156.41;5075534;28;20226;-69
2022/08/04 03:37:19;;;;;;;4.50;2.33;;;;;;;18.32;98.91;96155.31;5076933;28;20212;-69
2022/08/04 03:40:18;;;;;;;7.55;2.53;;;;;;;18.33;98.51;96152.47;5043667;28;20321;-69
2022/08/04 03:43:08;;;;;;;5.05;2.47;;;;;;;18.45;98.25;96162.13;5075534;28;20231;-69
2022/08/04 03:46:07;;;;;;;5.45;2.80;;;;;;;18.10;99.28;96165.66;5076671;28;21038;-69
2022/08/04 03:49:02;;;;;;;4.80;2.70;;;;;;;18.17;97.81;96166.41;5076390;28;20200;-69
2022/08/04 03:54:52;;;;;;;7.10;3.15;;;;;;;18.27;97.05;96157.88;5076234;28;20260;-69
2022/08/04 03:57:43;;;;;;;4.47;2.60;;;;;;;18.25;95.99;96166.09;5074192;28;20733;-69
2022/08/04 04:00:13;;;;;;;5.07;2.67;;;;;;;18.24;96.21;96158.31;5076254;28;20672;-69
2022/08/04 04:03:13;;;;;;;4.90;2.40;;;;;;;18.31;97.22;96169.72;5072983;28;20231;-69
2022/08/04 04:06:08;;;;;;;4.70;2.88;;;;;;;18.32;98.67;96166.00;5075959;28;20215;-69
2022/08/04 04:09:20;;;;;;;6.40;2.58;;;;;;;18.41;99.10;96160.94;5080467;28;20195;-69
2022/08/04 04:12:17;;;;;;;5.40;3.10;;;;;;;18.44;99.66;96157.84;5079920;28;20203;-69
2022/08/04 04:14:52;;;;;;;5.63;2.95;;;;;;;18.63;98.12;96153.25;5078789;28;20282;-69
2022/08/04 04:17:39;;;;;;;4.40;3.00;;;;;;;18.54;98.16;96157.28;5080049;28;20199;-69
2022/08/04 04:20:33;;;;;;;5.25;2.47;;;;;;;18.76;96.90;96155.72;5080824;28;20675;-69
2022/08/04 04:23:15;;;;;;;6.63;2.72;;;;;;;18.71;94.55;96156.41;5078893;28;20227;-69
2022/08/04 04:25:54;;;;;;;3.15;2.28;;;;;;;18.68;95.16;96156.03;5079727;28;20219;-69
2022/08/04 04:28:49;;;;;;;11.27;2.40;;;;;;;18.66;94.72;96160.78;5080288;28;20199;-68
2022/08/04 04:31:34;;;;;;;4.70;3.17;;;;;;;18.53;96.63;96148.47;5079393;28;20735;-69
2022/08/04 04:34:13;;;;;;;6.90;2.38;;;;;;;18.44;97.68;96168.50;5079203;28;20227;-69
2022/08/04 04:36:49;;;;;;;6.40;3.08;;;;;;;18.43;97.36;96166.03;5080039;28;20208;-69
2022/08/04 04:39:24;;;;;;;5.55;2.85;;;;;;;17.86;100.00;96181.75;5079744;28;21275;-69
2022/08/04 04:42:07;;;;;;;5.82;3.25;;;;;;;18.00;100.00;96177.91;5079396;28;20450;-69
2022/08/04 04:44:55;;;;;;;4.20;3.00;;;;;;;18.28;100.00;96175.50;5079246;28;20207;-69
2022/08/04 04:47:31;;;;;;;4.30;2.72;;;;;;;18.31;100.00;96177.72;5079192;28;20216;-69
2022/08/04 04:50:05;;;;;;;5.22;3.05;;;;;;;18.31;100.00;96183.88;5079515;28;20202;-69
2022/08/04 04:52:45;;;;;;;9.60;3.10;;;;;;;18.49;100.00;96189.97;5078914;28;20235;-69
2022/08/04 04:55:19;;;;;;;8.98;3.33;;;;;;;18.66;100.00;96182.97;5079111;28;20254;-69
2022/08/04 04:57:48;;;;;;;8.35;3.30;;;;;;;18.69;100.00;96187.84;5079150;28;20204;-69
2022/08/04 05:00:15;;;;;;;4.40;2.88;;;;;;;18.76;100.00;96188.56;5079436;28;20277;-69
2022/08/04 05:03:06;;;;;;;6.70;3.63;;;;;;;18.91;98.92;96196.94;5075130;28;20251;-69
2022/08/04 05:06:08;;;;;;;6.57;3.30;;;;;;;19.08;97.39;96195.25;5079414;28;20211;-69
2022/08/04 05:09:02;;;;;;;8.57;3.92;;;;;;;19.09;96.97;96186.22;5079142;28;20203;-69
2022/08/04 05:11:53;;;;;;;7.18;4.22;;;;;;;19.23;96.67;96187.63;5078593;28;20687;-69
2022/08/04 05:14:25;;;;;;;10.38;3.92;;;;;;;19.33;97.65;96187.88;5078632;28;20219;-69
2022/08/04 05:16:59;;;;;;;7.75;4.50;;;;;;;19.39;94.24;96193.09;5078129;28;20204;-69
2022/08/04 05:19:45;;;;;;;6.63;4.38;;;;;;;19.47;94.29;96189.28;5078763;28;20360;-69
2022/08/04 05:22:22;;;;;;;8.77;3.65;;;;;;;19.59;93.60;96186.34;5078903;28;20231;-69
2022/08/04 05:24:52;;;;;;;6.72;3.95;;;;;;;19.67;92.50;96190.53;5078320;28;20671;-69
2022/08/04 05:27:26;;;;;;;5.93;3.72;;;;;;;19.77;92.44;96190.78;5078667;28;20313;-69
2022/08/04 05:29:56;;;;;;;8.23;3.15;;;;;;;19.92;93.44;96186.59;5078250;28;20199;-69
2022/08/04 05:32:26;;;;;;;7.25;3.30;;;;;;;20.01;93.41;96185.16;5077095;28;20223;-69
2022/08/04 05:34:58;;;;;;;5.22;3.40;;;;;;;20.01;91.89;96182.50;5078622;28;20208;-69
2022/08/04 05:37:28;;;;;;;5.03;3.15;;;;;;;20.25;91.88;96192.06;5078561;28;20611;-69
2022/08/04 05:39:59;;;;;;;8.13;3.83;;;;;;;20.26;94.11;96186.50;5078403;28;20277;-69
2022/08/04 05:42:27;;;;;;;10.10;4.10;;;;;;;20.31;92.45;96188.44;5078048;28;20231;-69
2022/08/04 05:44:55;;;;;;;9.55;3.92;;;;;;;20.33;90.90;96187.16;5078165;28;20226;-69
2022/08/04 05:47:22;;;;;;;4.32;3.33;;;;;;;20.50;90.52;96189.91;5078225;28;20393;-71
2022/08/04 05:49:49;;;;;;;5.32;3.15;;;;;;;20.39;89.54;96191.56;5078303;28;20204;-70
2022/08/04 05:52:18;;;;;;;4.95;3.38;;;;;;;20.75;85.36;96201.09;5077885;28;20872;-71
2022/08/04 05:54:47;;;;;;;6.03;3.55;;;;;;;20.85;87.06;96200.25;5078423;28;20203;-71
2022/08/04 05:57:15;;;;;;;5.50;3.53;;;;;;;20.86;88.58;96204.53;5078073;28;20230;-71
2022/08/04 05:59:45;;;;;;;6.47;3.80;;;;;;;20.89;88.24;96209.41;5077548;28;20235;-71
2022/08/04 06:02:14;;;;;;;8.38;4.07;;;;;;;20.97;88.53;96205.53;5077738;28;20684;-71
2022/08/04 06:04:42;;;;;;;5.93;3.58;;;;;;;21.02;86.75;96210.97;5076035;28;20235;-71
2022/08/04 06:07:10;;;;;;;9.82;3.70;;;;;;;21.08;83.88;96210.81;5077681;28;21268;-71
2022/08/04 06:09:37;;;;;;;11.32;3.70;;;;;;;21.20;84.13;96203.50;5077798;28;20314;-71
2022/08/04 06:12:09;;;;;;;6.78;3.58;;;;;;;21.39;83.96;96196.84;5077702;28;20199;-71
2022/08/04 06:14:43;;;;;;;8.60;3.88;;;;;;;21.54;81.26;96197.94;5078090;28;20211;-71
2022/08/04 06:17:13;;;;;;;5.72;3.25;;;;;;;21.51;82.74;96201.13;5077496;28;20210;-72
2022/08/04 06:19:41;;;;;;;4.60;3.40;;;;;;;21.54;84.49;96202.50;5077419;28;20232;-71
2022/08/04 06:22:11;;;;;;;7.47;3.90;;;;;;;21.70;85.61;96186.38;5077599;28;20574;-71
2022/08/04 06:24:40;;;;;;;5.28;3.65;;;;;;;21.74;84.79;96194.72;5077119;28;20207;-71
2022/08/04 06:27:08;;;;;;;10.00;3.83;;;;;;;21.79;83.93;96184.91;5077441;28;20196;-69
2022/08/04 06:29:39;;;;;;;9.63;3.17;;;;;;;21.88;82.89;96193.31;5076924;28;20557;-71
2022/08/04 06:32:23;;;;;;;5.95;3.38;;;;;;;22.00;82.06;96191.34;5076691;28;20235;-70
2022/08/04 06:34:52;;;;;;;9.20;3.53;;;;;;;21.89;81.38;96189.59;5076450;28;20703;-69
2022/08/04 06:37:20;;;;;;;9.70;3.58;;;;;;;22.05;80.97;96198.41;5076759;28;20306;-70
2022/08/04 06:39:47;;;;;;;5.03;3.42;;;;;;;22.20;82.07;96203.16;5075467;28;20290;-69
2022/08/04 06:42:17;;;;;;;7.65;3.50;;;;;;;22.29;82.07;96199.81;5075615;28;20208;-71
2022/08/04 06:44:46;;;;;;;5.18;3.58;;;;;;;22.27;82.50;96193.88;5077206;28;20212;-71
2022/08/04 06:47:17;;;;;;;7.32;3.55;;;;;;;22.33;81.59;96195.56;5077517;28;20208;-69
2022/08/04 06:49:46;;;;;;;5.25;3.58;;;;;;;22.39;81.60;96196.44;5077440;28;21040;-71
2022/08/04 06:52:16;;;;;;;6.00;3.97;;;;;;;22.68;80.54;96201.34;5076637;28;20208;-69
2022/08/04 06:54:43;;;;;;;6.07;3.35;;;;;;;22.75;81.66;96201.97;5076652;28;20218;-70
2022/08/04 06:57:11;;;;;;;4.85;3.40;;;;;;;22.84;80.97;96206.63;5077141;28;20582;-71
2022/08/04 06:59:41;;;;;;;6.18;3.60;;;;;;;23.07;78.78;96205.53;5077372;28;20219;-69
2022/08/04 07:02:13;;;;;;;5.32;3.38;;;;;;;23.20;78.00;96202.44;5077011;28;20707;-70
2022/08/04 07:04:40;;;;;;;8.38;3.35;;;;;;;23.27;77.01;96203.00;5074590;28;20211;-70
2022/08/04 07:07:07;;;;;;;5.40;3.30;;;;;;;23.30;78.09;96206.81;5076588;28;20207;-71
2022/08/04 07:09:34;;;;;;;6.32;3.10;;;;;;;23.39;76.95;96207.97;5077035;28;20196;-71
2022/08/04 07:12:02;;;;;;;5.63;3.40;;;;;;;23.54;78.33;96202.72;5076750;28;20200;-71
2022/08/04 07:14:31;;;;;;;5.90;3.10;;;;;;;23.70;76.09;96201.78;5075358;28;20204;-72
2022/08/04 07:17:00;;;;;;;6.57;3.28;;;;;;;23.72;75.75;96205.03;5076500;28;20290;-70
2022/08/04 07:19:26;;;;;;;4.82;2.97;;;;;;;23.78;76.17;96204.00;5076850;28;20227;-69
2022/08/04 07:21:53;;;;;;;5.13;2.95;;;;;;;24.02;78.17;96202.53;5073154;28;20204;-71
2022/08/04 07:24:20;;;;;;;4.28;2.92;;;;;;;23.99;77.29;96200.34;5074541;28;20227;-72
2022/08/04 07:26:50;;;;;;;6.60;3.35;;;;;;;24.24;75.92;96201.28;5075142;28;20204;-71
2022/08/04 07:29:17;;;;;;;4.85;3.10;;;;;;;24.35;76.91;96196.75;5074941;28;20199;-70
2022/08/04 07:31:44;;;;;;;5.78;3.13;;;;;;;24.55;76.71;96196.88;5075454;28;20204;-72
2022/08/04 07:34:12;;;;;;;5.32;3.28;;;;;;;24.61;73.08;96192.03;5074912;28;20224;-69
2022/08/04 07:36:38;;;;;;;4.50;2.80;;;;;;;24.74;73.55;96202.31;5074758;28;20433;-69
2022/08/04 07:39:05;;;;;;;4.30;2.50;;;;;;;24.81;75.26;96205.59;5075841;28;20228;-71
2022/08/04 07:41:32;;;;;;;6.20;3.00;;;;;;;24.87;72.65;96201.84;5079233;28;20210;-71
2022/08/04 07:43:58;;;;;;;4.28;3.10;;;;;;;25.05;73.94;96200.53;5079264;28;20223;-71
2022/08/04 07:46:25;;;;;;;7.45;2.97;;;;;;;25.23;73.21;96200.84;5079689;28;20207;-70
2022/08/04 07:48:52;;;;;;;4.07;2.65;;;;;;;25.27;73.74;96201.91;5080120;28;20208;-71
2022/08/04 07:51:20;;;;;;;7.75;2.85;;;;;;;25.29;71.10;96202.44;5078778;28;20204;-70
2022/08/04 07:53:48;;;;;;;6.00;2.60;;;;;;;25.45;71.21;96195.97;5077042;28;20223;-70
2022/08/04 07:56:15;;;;;;;4.90;3.25;;;;;;;25.43;70.46;96203.53;5078767;28;20203;-72
2022/08/04 07:58:42;;;;;;;7.30;2.88;;;;;;;25.59;69.77;96195.16;5078759;28;20215;-71
2022/08/04 08:01:10;;;;;;;8.15;2.78;;;;;;;25.67;70.11;96194.59;5077561;28;20746;-70
2022/08/04 08:03:37;;;;;;;4.10;2.90;;;;;;;25.86;66.70;96199.22;5077786;28;20219;-69
2022/08/04 08:06:04;;;;;;;3.67;2.80;;;;;;;25.96;66.12;96198.38;5078424;28;20200;-69
2022/08/04 08:08:32;;;;;;;4.85;2.60;;;;;;;26.21;67.90;96187.50;5078897;28;20249;-71
2022/08/04 08:10:59;;;;;;;5.65;2.67;;;;;;;26.13;66.92;96186.19;5078862;28;20747;-68
2022/08/04 08:13:26;;;;;;;4.03;2.67;;;;;;;26.18;64.88;96182.66;5078427;28;20224;-71
2022/08/04 08:15:53;;;;;;;5.15;2.30;;;;;;;26.41;64.62;96190.19;5079045;28;20211;-71
2022/08/04 08:18:19;;;;;;;4.78;2.30;;;;;;;26.63;65.40;96183.34;5078980;28;20215;-69
2022/08/04 08:20:46;;;;;;;7.90;2.60;;;;;;;26.81;64.97;96180.00;5078754;28;20227;-72
2022/08/04 08:23:13;;;;;;;4.50;2.50;;;;;;;26.88;63.72;96180.47;5078185;28;20224;-70
2022/08/04 08:25:41;;;;;;;7.47;2.40;;;;;;;27.09;64.48;96183.63;5078897;28;20588;-71
2022/08/04 08:28:07;;;;;;;5.03;2.50;;;;;;;27.17;63.42;96182.22;5079297;28;20204;-71
2022/08/04 08:30:34;;;;;;;6.03;2.50;;;;;;;27.44;65.95;96186.06;5078610;28;20200;-71
2022/08/04 08:33:04;;;;;;;4.07;2.72;;;;;;;27.43;63.45;96173.63;5078236;28;20598;-72
2022/08/04 08:35:37;;;;;;;3.40;2.40;;;;;;;27.65;65.51;96182.13;5079349;28;20203;-70
2022/08/04 08:38:06;;;;;;;5.22;2.80;;;;;;;27.73;62.40;96176.09;5078865;28;20291;-72
2022/08/04 08:40:42;;;;;;;4.05;2.70;;;;;;;27.88;60.68;96178.66;5078259;28;20234;-70
2022/08/04 08:43:44;;;;;;;3.58;2.55;;;;;;;27.93;59.84;96175.91;5078543;28;20232;-71
2022/08/04 08:46:52;;;;;;;5.30;2.70;;;;;;;27.94;62.96;96178.31;5078972;28;20569;-70
2022/08/04 08:49:59;;;;;;;5.38;2.40;;;;;;;28.17;61.31;96177.56;5078217;28;20207;-70
2022/08/04 08:52:51;;;;;;;3.92;2.63;;;;;;;28.29;59.79;96180.69;5077248;28;20230;-69
2022/08/04 08:55:27;;;;;;;5.72;2.33;;;;;;;28.42;58.96;96177.28;5078803;28;20207;-70
2022/08/04 08:58:16;;;;;;;4.97;2.83;;;;;;;28.42;58.39;96167.25;5078160;28;20204;-72
2022/08/04 09:00:56;;;;;;;3.30;2.45;;;;;;;28.66;57.42;96180.78;5078515;28;20234;-71
2022/08/04 09:03:46;;;;;;;3.25;2.33;;;;;;;28.82;56.74;96177.59;5077659;28;20223;-72
2022/08/04 09:06:45;;;;;;;6.28;2.95;;;;;;;28.97;57.34;96182.78;5078292;28;20216;-71
2022/08/04 09:09:29;;;;;;;4.35;2.60;;;;;;;28.85;56.57;96178.94;5078195;28;20203;-69
2022/08/04 09:12:03;;;;;;;3.38;2.53;;;;;;;29.12;56.43;96180.69;5077876;28;20207;-71
2022/08/04 09:14:39;;;;;;;6.82;3.45;;;;;;;29.38;56.80;96186.56;5077924;28;20208;-71
2022/08/04 09:17:22;;;;;;;3.85;2.70;;;;;;;29.30;54.91;96179.06;5078276;28;20199;-70
2022/08/04 09:19:54;;;;;;;6.95;2.58;;;;;;;29.46;56.00;96177.75;5077972;28;20779;-72
2022/08/04 09:22:29;;;;;;;5.68;2.75;;;;;;;29.56;55.20;96167.53;5077188;28;20273;-69
2022/08/04 09:25:03;;;;;;;4.13;2.60;;;;;;;29.60;54.03;96174.78;5078453;28;20490;-71
2022/08/04 09:27:40;;;;;;;6.35;2.92;;;;;;;29.75;55.55;96173.75;5077979;28;20204;-72
2022/08/04 09:30:09;;;;;;;5.43;2.50;;;;;;;30.01;53.53;96169.50;5077904;28;20200;-72
2022/08/04 09:32:45;;;;;;;4.85;2.80;;;;;;;30.25;53.40;96165.47;5075853;28;20323;-72
2022/08/04 09:35:19;;;;;;;4.22;2.30;;;;;;;30.17;56.98;96159.94;5077441;28;20489;-72
2022/08/04 09:37:54;;;;;;;7.00;2.42;;;;;;;30.14;57.26;96176.84;5077721;28;20204;-72
2022/08/04 09:40:26;;;;;;;5.55;2.90;;;;;;;30.32;54.25;96163.16;5077497;28;20226;-72
2022/08/04 09:43:02;;;;;;;3.55;2.70;;;;;;;30.40;53.21;96166.00;5076754;28;20478;-69
2022/08/04 09:45:36;;;;;;;3.42;2.42;;;;;;;30.65;54.31;96164.69;5077268;28;20660;-71
2022/08/04 09:48:09;;;;;;;4.53;2.55;;;;;;;30.83;54.00;96156.41;5076624;28;20196;-70
2022/08/04 09:50:38;;;;;;;3.22;2.75;;;;;;;30.83;52.31;96161.03;5078502;28;20573;-72
2022/08/04 09:53:30;;;;;;;4.28;2.58;;;;;;;31.05;49.79;96165.44;5077821;28;20222;-71
2022/08/04 09:56:03;;;;;;;5.63;3.10;;;;;;;30.76;50.06;96171.53;5077448;28;20203;-70
2022/08/04 09:58:44;;;;;;;3.35;2.50;;;;;;;31.08;53.26;96159.38;5076733;28;20203;-71
2022/08/04 10:01:15;;;;;;;3.47;2.33;;;;;;;31.08;51.21;96162.09;5077916;28;20420;-71
2022/08/04 10:03:48;;;;;;;3.65;2.63;;;;;;;31.02;49.84;96162.53;5076725;28;20314;-71
2022/08/04 10:06:51;;;;;;;10.15;2.53;;;;;;;31.44;54.16;96162.09;5076589;28;20401;-71
2022/08/04 10:09:32;;;;;;;5.28;2.63;;;;;;;31.50;48.14;96167.13;5078124;28;20207;-71
2022/08/04 10:12:16;;;;;;;5.97;2.80;;;;;;;31.48;47.82;96156.56;5078074;28;20231;-72
2022/08/04 10:14:52;;;;;;;3.17;2.40;;;;;;;31.72;47.09;96154.31;5078141;28;20208;-72
2022/08/04 10:17:32;;;;;;;5.47;2.80;;;;;;;31.72;47.04;96153.50;5078390;28;20288;-70
2022/08/04 10:20:14;;;;;;;5.10;2.60;;;;;;;31.96;46.20;96152.03;5077717;28;20251;-71
2022/08/04 10:22:50;;;;;;;4.18;2.67;;;;;;;32.10;50.75;96144.59;5075967;28;20224;-72
2022/08/04 10:25:24;;;;;;;2.95;2.47;;;;;;;32.21;45.73;96138.56;5077979;28;20203;-72
2022/08/04 10:27:54;;;;;;;4.07;2.63;;;;;;;32.24;43.53;96139.84;5077353;28;20214;-69
2022/08/04 10:30:21;;;;;;;6.03;2.90;;;;;;;32.37;42.96;96139.75;5077372;28;20208;-72
2022/08/04 10:32:52;;;;;;;3.60;2.47;;;;;;;32.60;44.63;96140.50;5076728;28;20235;-70
2022/08/04 10:35:23;;;;;;;3.28;2.45;;;;;;;32.15;43.86;96131.66;5077423;28;20580;-71
2022/08/04 10:38:00;;;;;;;3.50;2.90;;;;;;;32.39;44.61;96131.25;5077255;28;20294;-72
2022/08/04 10:40:39;;;;;;;2.80;2.20;;;;;;;32.72;44.10;96128.63;5077822;28;20219;-71
2022/08/04 10:43:11;;;;;;;6.07;2.65;;;;;;;33.11;43.47;96130.47;5076237;28;20219;-72
2022/08/04 10:45:44;;;;;;;5.15;2.50;;;;;;;33.33;43.30;96130.34;5077132;28;20204;-72
2022/08/04 10:48:15;;;;;;;3.90;2.33;;;;;;;33.55;44.67;96118.13;5077268;28;20231;-70
2022/08/04 10:50:55;;;;;;;2.95;2.38;;;;;;;33.43;47.75;96115.22;5077252;28;20211;-72
2022/08/04 10:53:26;;;;;;;3.42;2.60;;;;;;;33.25;41.96;96123.75;5076293;28;20223;-72
2022/08/04 10:55:59;;;;;;;7.15;2.80;;;;;;;33.37;43.60;96125.84;5076999;28;20226;-71
2022/08/04 10:58:30;;;;;;;4.78;2.53;;;;;;;33.37;41.83;96120.38;5076890;28;21094;-70
2022/08/04 11:01:02;;;;;;;3.20;2.47;;;;;;;33.38;43.37;96118.09;5076505;28;20219;-72
2022/08/04 11:03:38;;;;;;;3.88;2.50;;;;;;;33.82;40.97;96120.50;5076504;28;20223;-70
2022/08/04 11:06:08;;;;;;;3.80;2.45;;;;;;;33.90;39.44;96125.13;5075828;28;20290;-69
2022/08/04 11:08:37;;;;;;;5.32;2.60;;;;;;;33.55;40.81;96117.31;5076309;28;20295;-70
2022/08/04 11:11:12;;;;;;;2.88;2.30;;;;;;;33.94;41.42;96115.16;5077049;28;20192;-71
2022/08/04 11:13:45;;;;;;;4.13;2.67;;;;;;;34.09;41.91;96107.25;5076008;28;20227;-72
2022/08/04 11:16:18;;;;;;;6.05;2.33;;;;;;;33.54;39.00;96111.06;5076329;28;20226;-71
2022/08/04 11:18:49;;;;;;;5.53;2.45;;;;;;;33.64;40.64;96105.22;5076336;28;20211;-72
2022/08/04 11:21:21;;;;;;;4.38;2.33;;;;;;;33.61;39.82;96105.88;5076443;28;20568;-71
2022/08/04 11:23:56;;;;;;;2.85;2.35;;;;;;;33.70;41.11;96103.94;5075428;28;20228;-71
2022/08/04 11:26:32;;;;;;;4.85;2.60;;;;;;;33.90;40.85;96105.19;5076344;28;20210;-70
2022/08/04 11:29:08;;;;;;;5.55;2.95;;;;;;;34.23;39.17;96096.06;5075904;28;20204;-69
2022/08/04 11:31:39;;;;;;;2.95;2.47;;;;;;;34.31;38.30;96101.50;5075505;28;20211;-72
2022/08/04 11:34:14;;;;;;;2.70;2.05;;;;;;;34.60;38.84;96098.00;5075187;28;20219;-69
2022/08/04 11:36:49;;;;;;;3.10;2.38;;;;;;;34.57;37.93;96095.94;5074968;28;20195;-72
2022/08/04 11:39:24;;;;;;;4.07;2.13;;;;;;;34.98;37.07;96094.88;5075830;28;20203;-69
2022/08/04 11:41:56;;;;;;;2.40;2.20;;;;;;;34.85;38.77;96103.31;5075417;28;20249;-72
2022/08/04 11:44:31;;;;;;;3.97;2.03;;;;;;;35.05;36.02;96095.13;5075367;28;20235;-69
2022/08/04 11:47:02;;;;;;;6.25;2.45;;;;;;;35.26;37.25;96097.88;5075608;28;20203;-69
2022/08/04 11:49:40;;;;;;;5.50;2.20;;;;;;;35.15;35.98;96099.44;5076018;28;20200;-71
2022/08/04 11:52:10;;;;;;;2.88;2.05;;;;;;;34.94;36.05;96102.13;5075730;28;20195;-72
2022/08/04 11:54:37;;;;;;;4.65;2.10;;;;;;;34.74;34.16;96102.91;5074893;28;20204;-71
2022/08/04 11:57:05;;;;;;;2.90;2.03;;;;;;;34.82;35.05;96093.81;5075875;28;21193;-72
2022/08/04 11:59:35;;;;;;;2.05;1.85;;;;;;;34.87;34.13;96096.38;5076382;28;20231;-69
2022/08/04 12:02:48;;;;;;;3.58;2.30;;;;;;;34.91;35.50;96097.31;5075815;28;20703;-70
2022/08/04 12:05:19;;;;;;;3.25;2.20;;;;;;;35.15;35.12;96097.47;5061697;28;20292;-72
2022/08/04 12:07:57;;;;;;;5.80;2.10;;;;;;;35.06;35.02;96088.53;5076492;28;20234;-72
2022/08/04 12:10:37;;;;;;;2.97;2.25;;;;;;;35.40;34.10;96088.22;5076463;28;20207;-72
2022/08/04 12:13:14;;;;;;;3.50;2.42;;;;;;;35.55;32.97;96079.41;5076038;28;20700;-71
2022/08/04 12:15:51;;;;;;;2.53;2.10;;;;;;;35.30;33.65;96088.66;5076298;28;20219;-72
2022/08/04 12:18:24;;;;;;;2.72;2.13;;;;;;;35.51;35.27;96078.47;5075453;28;21281;-70
2022/08/04 12:20:57;;;;;;;2.58;2.05;;;;;;;35.70;36.63;96078.78;5076456;28;20276;-71